Hauptseite
METAR-TAF:

METAR-TAF

Flughäfen :

RAF Shawbury

Shawbury, England

Breite: 52-48N, Länge: 002-40W, Höhe: 76 m

Beobachtung

Neuester Wetterbericht von vor 45 Minuten, um 17:50 UTC
Wind 9 kt aus Süd
Temperatur 23°C
Luftfeuchtigkeit 73%
Luftdruck 1015 hPa
Sichtweite 10 km oder mehr

METAR: EGOS 061750Z AUTO 19009KT 9999 FEW028/// BKN033/// BKN050/// 23/18 Q1015 REDZ

Zeit: 19:35 (18:35 UTC)

Prognose

Neuester Wetterbericht von vor 4 Stunden und 45 Minuten, um 13:50 UTC
Gültige Prognose vom 06 um 15 UTC bis 06 um 19 UTC
Wind 10 kt aus Süd
Sichtweite 10 km oder mehr
Aufgelockert bewölkt in der Höhe von 4000 ft

TAF: EGOS 061350Z 0615/0619 18010KT 9999 SCT040

Wetterbeobachtungen und Prognosen von mehr als 4000 Flughäfen (METAR und TAF Bericht).

Die verfügbaren Stationen werden durch gelbe und rote Markierungen auf der Karte dargestellt.

Führen Sie die Maus auf sie, um den Namen der Station zu sehen.

Darauf klicken, um die Beobachtung von Wetterbeobachtungen und Prognosen zu sehen.

Um die Karte zu ändern : klicken Sie auf den grünen Tasten mit einem schwarzen Kreuz Zum Vergrößern, auf den grünen Button mit einem Gedankenstrich zu verkleinern, oder auf die grünen Pfeile für benachbarte Karten.


METAR-TAF: